createdAt,value
2018-04-28T00:02:11.913Z,8.50
2018-04-28T00:04:47.557Z,8.50
2018-04-28T00:07:16.558Z,8.30
2018-04-28T00:09:52.200Z,8.30
2018-04-28T00:12:20.386Z,8.30
2018-04-28T00:14:55.644Z,8.30
2018-04-28T00:17:23.831Z,8.30
2018-04-28T00:19:55.707Z,8.30
2018-04-28T00:22:23.911Z,8.30
2018-04-28T00:24:55.554Z,8.10
2018-04-28T00:27:29.269Z,8.20
2018-04-28T00:32:58.118Z,8.10
2018-04-28T00:35:29.794Z,8.00
2018-04-28T00:37:59.827Z,8.00
2018-04-28T00:40:44.008Z,7.90
2018-04-28T00:43:27.953Z,7.80
2018-04-28T00:46:08.487Z,7.70
2018-04-28T00:48:42.390Z,7.70
2018-04-28T00:54:22.656Z,7.70
2018-04-28T01:00:17.210Z,7.70
2018-04-28T01:09:04.929Z,7.70
2018-04-28T01:11:35.973Z,7.50
2018-04-28T01:17:11.838Z,7.60
2018-04-28T01:19:48.493Z,7.60
2018-04-28T01:22:26.730Z,7.70
2018-04-28T01:24:54.991Z,7.60
2018-04-28T01:27:44.811Z,7.60
2018-04-28T01:36:34.813Z,9.30
2018-04-28T01:39:09.289Z,7.60
2018-04-28T01:41:55.983Z,7.60
2018-04-28T01:44:39.062Z,7.40
2018-04-28T01:47:20.003Z,7.40
2018-04-28T01:49:57.501Z,7.50
2018-04-28T01:52:48.285Z,7.60
2018-04-28T01:55:23.282Z,7.50
2018-04-28T01:58:15.943Z,7.60
2018-04-28T02:01:02.543Z,7.60
2018-04-28T02:06:52.626Z,7.60
2018-04-28T02:09:21.651Z,7.60
2018-04-28T02:14:52.346Z,7.50
2018-04-28T02:17:46.369Z,7.20
2018-04-28T02:23:32.807Z,7.30
2018-04-28T02:28:38.347Z,7.40
2018-04-28T02:31:26.193Z,7.50
2018-04-28T02:33:55.237Z,7.50
2018-04-28T02:36:26.640Z,7.40
2018-04-28T02:38:55.745Z,7.40
2018-04-28T02:41:32.395Z,7.50
2018-04-28T02:47:26.839Z,7.60
2018-04-28T02:53:29.040Z,7.60
2018-04-28T02:56:07.053Z,7.60
2018-04-28T02:59:17.980Z,7.50
2018-04-28T03:01:59.263Z,7.50
2018-04-28T03:04:43.135Z,7.40
2018-04-28T03:10:26.255Z,7.50
2018-04-28T03:12:54.535Z,7.40
2018-04-28T03:15:22.770Z,7.50
2018-04-28T03:18:01.117Z,7.50
2018-04-28T03:20:46.157Z,7.40
2018-04-28T03:26:18.187Z,7.30
2018-04-28T03:28:48.112Z,7.40
2018-04-28T03:31:39.279Z,7.40
2018-04-28T03:34:16.088Z,7.40
2018-04-28T03:37:09.945Z,7.30
2018-04-28T03:39:40.453Z,7.30
2018-04-28T03:42:10.626Z,7.20
2018-04-28T03:44:44.083Z,7.30
2018-04-28T03:50:27.045Z,7.30
2018-04-28T03:56:11.845Z,7.30
2018-04-28T03:58:58.430Z,7.20
2018-04-28T04:01:44.638Z,7.20
2018-04-28T04:04:16.279Z,7.10
2018-04-28T04:10:29.853Z,7.10
2018-04-28T04:22:40.990Z,7.00
2018-04-28T04:28:48.866Z,7.10
2018-04-28T04:31:28.459Z,7.20
2018-04-28T04:34:06.444Z,7.10
2018-04-28T04:36:39.954Z,7.10
2018-04-28T04:39:11.608Z,7.00
2018-04-28T04:42:03.497Z,7.10
2018-04-28T04:50:26.819Z,7.00
2018-04-28T04:52:55.905Z,7.00
2018-04-28T04:58:52.641Z,7.20
2018-04-28T05:01:28.185Z,7.20
2018-04-28T05:04:02.987Z,7.40
2018-04-28T05:06:43.553Z,7.60
2018-04-28T05:09:34.978Z,7.60
2018-04-28T05:12:12.385Z,7.50
2018-04-28T05:18:25.536Z,7.60
2018-04-28T05:27:34.541Z,7.80
2018-04-28T05:36:39.658Z,8.10
2018-04-28T05:42:01.440Z,8.10
2018-04-28T05:48:17.989Z,8.20
2018-04-28T05:54:24.538Z,8.30
2018-04-28T05:57:19.900Z,8.30
2018-04-28T06:00:02.697Z,8.30
2018-04-28T06:05:44.983Z,8.60
2018-04-28T06:11:18.312Z,9.10
2018-04-28T06:14:09.457Z,9.10
2018-04-28T06:17:08.706Z,9.70
2018-04-28T06:20:06.452Z,10.00
2018-04-28T06:22:34.550Z,9.90
2018-04-28T06:25:02.821Z,10.20
2018-04-28T06:27:35.601Z,10.30
2018-04-28T06:30:04.995Z,10.70
2018-04-28T06:32:33.189Z,10.70
2018-04-28T06:35:01.464Z,10.80
2018-04-28T06:37:41.068Z,11.00
2018-04-28T06:40:17.987Z,11.30
2018-04-28T06:42:46.176Z,11.30
2018-04-28T06:45:14.433Z,11.50
2018-04-28T06:47:51.392Z,11.60
2018-04-28T06:50:20.350Z,12.20
2018-04-28T06:52:48.513Z,12.20
2018-04-28T06:55:16.719Z,12.00
2018-04-28T06:57:59.538Z,12.10
2018-04-28T07:00:28.673Z,12.20
2018-04-28T07:02:57.793Z,12.60
2018-04-28T07:05:28.138Z,12.80
2018-04-28T07:07:58.346Z,12.90
2018-04-28T07:10:33.736Z,12.80
2018-04-28T07:13:10.145Z,12.80
2018-04-28T07:15:39.162Z,12.80
2018-04-28T07:18:16.796Z,12.60
2018-04-28T07:20:45.795Z,13.10
2018-04-28T07:23:14.804Z,13.30
2018-04-28T07:25:42.992Z,13.30
2018-04-28T07:28:20.320Z,13.40
2018-04-28T07:30:48.505Z,13.70
2018-04-28T07:33:16.686Z,13.80
2018-04-28T07:35:45.656Z,14.00
2018-04-28T07:38:32.642Z,14.00
2018-04-28T07:41:00.832Z,14.20
2018-04-28T07:43:29.288Z,14.10
2018-04-28T07:45:58.285Z,14.20
2018-04-28T07:48:30.094Z,14.20
2018-04-28T07:50:58.285Z,14.40
2018-04-28T07:53:27.210Z,14.30
2018-04-28T07:55:55.376Z,14.30
2018-04-28T07:58:24.514Z,14.40
2018-04-28T08:00:52.714Z,14.40
2018-04-28T08:03:21.703Z,14.50
2018-04-28T08:05:50.673Z,14.60
2018-04-28T08:08:19.946Z,14.60
2018-04-28T08:10:48.133Z,14.60
2018-04-28T08:13:16.381Z,14.60
2018-04-28T08:15:52.522Z,14.70
2018-04-28T08:18:25.845Z,14.90
2018-04-28T08:20:54.041Z,15.10
2018-04-28T08:23:22.246Z,15.20
2018-04-28T08:25:51.188Z,15.40
2018-04-28T08:28:31.670Z,15.40
2018-04-28T08:31:06.901Z,15.30
2018-04-28T08:33:35.144Z,15.30
2018-04-28T08:36:03.310Z,15.30
2018-04-28T08:38:33.557Z,15.20
2018-04-28T08:41:01.742Z,15.20
2018-04-28T08:43:29.993Z,15.40
2018-04-28T08:45:58.194Z,15.40
2018-04-28T08:48:34.090Z,15.40
2018-04-28T08:51:03.050Z,15.60
2018-04-28T08:53:31.214Z,15.60
2018-04-28T08:55:59.461Z,15.40
2018-04-28T08:58:27.688Z,15.50
2018-04-28T09:01:01.541Z,15.80
2018-04-28T09:03:29.756Z,16.10
2018-04-28T09:05:57.974Z,16.40
2018-04-28T09:08:45.783Z,16.00
2018-04-28T09:11:14.049Z,15.90
2018-04-28T09:13:42.263Z,16.20
2018-04-28T09:16:10.497Z,16.60
2018-04-28T09:18:38.653Z,17.20
2018-04-28T09:21:06.850Z,17.10
2018-04-28T09:23:35.063Z,17.70
2018-04-28T09:26:03.402Z,17.30
2018-04-28T09:28:46.738Z,17.10
2018-04-28T09:31:15.788Z,16.70
2018-04-28T09:33:44.073Z,16.70
2018-04-28T09:36:12.321Z,16.90
2018-04-28T09:38:40.530Z,17.00
2018-04-28T09:41:08.741Z,17.30
2018-04-28T09:43:37.821Z,17.00
2018-04-28T09:46:06.114Z,16.90
2018-04-28T09:48:47.876Z,16.90
2018-04-28T09:51:16.123Z,16.90
2018-04-28T09:53:44.313Z,17.00
2018-04-28T09:56:12.584Z,17.10
2018-04-28T09:58:45.452Z,17.50
2018-04-28T10:01:19.387Z,17.80
2018-04-28T10:03:53.058Z,17.90
2018-04-28T10:06:21.282Z,18.00
2018-04-28T10:08:56.938Z,17.90
2018-04-28T10:11:25.965Z,18.40
2018-04-28T10:13:54.125Z,18.40
2018-04-28T10:16:23.085Z,18.60
2018-04-28T10:19:21.928Z,18.60
2018-04-28T10:21:50.177Z,18.90
2018-04-28T10:24:19.170Z,19.30
2018-04-28T10:26:52.837Z,19.10
2018-04-28T10:29:20.991Z,19.10
2018-04-28T10:31:49.177Z,18.70
2018-04-28T10:34:17.373Z,18.60
2018-04-28T10:36:45.604Z,18.70
2018-04-28T10:39:13.797Z,18.50
2018-04-28T10:41:42.010Z,18.40
2018-04-28T10:44:10.949Z,17.90
2018-04-28T10:46:39.138Z,17.90
2018-04-28T10:49:07.349Z,17.80
2018-04-28T10:51:36.388Z,18.10
2018-04-28T10:54:04.648Z,18.10
2018-04-28T10:56:32.853Z,17.90
2018-04-28T10:59:01.112Z,18.00
2018-04-28T11:01:29.367Z,18.00
2018-04-28T11:03:57.565Z,18.10
2018-04-28T11:06:25.762Z,18.30
2018-04-28T11:08:59.656Z,18.10
2018-04-28T11:11:27.846Z,18.30
2018-04-28T11:13:56.114Z,18.40
2018-04-28T11:16:24.319Z,18.90
2018-04-28T11:19:09.489Z,19.50
2018-04-28T11:21:37.754Z,19.40
2018-04-28T11:24:06.105Z,19.70
2018-04-28T11:26:34.299Z,20.20
2018-04-28T11:29:02.516Z,20.30
2018-04-28T11:31:30.726Z,19.80
2018-04-28T11:33:59.001Z,19.10
2018-04-28T11:36:27.240Z,18.90
2018-04-28T11:39:17.006Z,18.80
2018-04-28T11:41:45.962Z,19.00
2018-04-28T11:44:14.193Z,19.00
2018-04-28T11:46:42.474Z,18.90
2018-04-28T11:49:10.722Z,18.80
2018-04-28T11:51:39.231Z,18.50
2018-04-28T11:54:07.455Z,18.60
2018-04-28T11:56:35.638Z,18.60
2018-04-28T11:59:03.997Z,18.40
2018-04-28T12:01:32.914Z,18.20
2018-04-28T12:04:01.909Z,18.40
2018-04-28T12:06:30.941Z,18.70
2018-04-28T12:08:59.137Z,18.70
2018-04-28T12:11:27.450Z,18.90
2018-04-28T12:13:55.687Z,18.90
2018-04-28T12:16:23.942Z,18.70
2018-04-28T12:18:52.137Z,18.60
2018-04-28T12:21:20.293Z,18.40
2018-04-28T12:23:48.448Z,18.40
2018-04-28T12:26:16.689Z,18.60
2018-04-28T12:28:45.915Z,18.50
2018-04-28T12:31:14.181Z,18.70
2018-04-28T12:33:43.198Z,19.00
2018-04-28T12:36:11.416Z,19.00
2018-04-28T12:38:41.586Z,19.00
2018-04-28T12:41:09.813Z,19.10
2018-04-28T12:43:38.080Z,19.00
2018-04-28T12:46:06.306Z,19.30
2018-04-28T12:48:51.921Z,19.40
2018-04-28T12:51:20.136Z,19.30
2018-04-28T12:53:48.326Z,19.60
2018-04-28T12:56:17.290Z,19.20
2018-04-28T12:58:50.454Z,19.10
2018-04-28T13:01:18.652Z,19.00
2018-04-28T13:03:46.856Z,19.10
2018-04-28T13:06:15.877Z,19.50
2018-04-28T13:08:59.255Z,19.50
2018-04-28T13:11:27.521Z,19.60
2018-04-28T13:13:55.777Z,19.50
2018-04-28T13:16:23.969Z,19.70
2018-04-28T13:18:53.117Z,19.30
2018-04-28T13:21:21.364Z,19.60
2018-04-28T13:23:51.254Z,19.60
2018-04-28T13:26:19.436Z,19.60
2018-04-28T13:28:47.693Z,20.00
2018-04-28T13:31:15.893Z,19.80
2018-04-28T13:33:44.131Z,19.90
2018-04-28T13:36:12.313Z,20.20
2018-04-28T13:38:42.557Z,20.40
2018-04-28T13:41:10.778Z,20.10
2018-04-28T13:43:38.998Z,20.30
2018-04-28T13:46:07.237Z,20.10
2018-04-28T13:48:35.445Z,20.20
2018-04-28T13:51:03.641Z,20.30
2018-04-28T13:53:31.880Z,20.40
2018-04-28T13:56:00.210Z,20.70
2018-04-28T13:58:28.410Z,20.30
2018-04-28T14:00:56.683Z,20.20
2018-04-28T14:03:24.936Z,20.20
2018-04-28T14:05:53.165Z,20.30
2018-04-28T14:08:22.273Z,20.60
2018-04-28T14:10:50.473Z,20.70
2018-04-28T14:13:18.667Z,21.30
2018-04-28T14:15:46.889Z,20.70
2018-04-28T14:18:20.281Z,20.60
2018-04-28T14:20:48.527Z,20.10
2018-04-28T14:23:16.712Z,20.00
2018-04-28T14:25:44.911Z,20.40
2018-04-28T14:28:14.120Z,20.90
2018-04-28T14:30:42.343Z,21.50
2018-04-28T14:33:10.639Z,21.40
2018-04-28T14:35:40.075Z,22.10
2018-04-28T14:38:10.264Z,22.40
2018-04-28T14:40:38.507Z,22.80
2018-04-28T14:43:07.701Z,23.80
2018-04-28T14:45:35.927Z,24.60
2018-04-28T14:48:08.834Z,24.60
2018-04-28T14:50:45.167Z,26.90
2018-04-28T14:53:13.472Z,26.90
2018-04-28T14:55:41.729Z,26.80
2018-04-28T14:58:17.694Z,26.10
2018-04-28T15:00:45.973Z,25.30
2018-04-28T15:03:14.156Z,25.30
2018-04-28T15:05:43.136Z,25.40
2018-04-28T15:08:18.886Z,25.40
2018-04-28T15:10:47.120Z,26.40
2018-04-28T15:13:15.322Z,26.50
2018-04-28T15:15:43.566Z,26.20
2018-04-28T15:18:14.532Z,26.30
2018-04-28T15:20:42.692Z,26.30
2018-04-28T15:23:10.863Z,25.30
2018-04-28T15:25:39.079Z,24.10
2018-04-28T15:28:07.318Z,24.20
2018-04-28T15:30:35.591Z,24.90
2018-04-28T15:33:03.828Z,25.00
2018-04-28T15:35:32.802Z,24.80
2018-04-28T15:38:02.055Z,24.70
2018-04-28T15:40:30.313Z,24.70
2018-04-28T15:42:58.566Z,24.50
2018-04-28T15:45:27.506Z,24.30
2018-04-28T15:48:04.767Z,24.30
2018-04-28T15:50:32.959Z,24.60
2018-04-28T15:53:01.199Z,25.00
2018-04-28T15:55:29.435Z,24.40
2018-04-28T15:57:58.621Z,24.10
2018-04-28T16:00:26.893Z,23.50
2018-04-28T16:02:55.170Z,23.20
2018-04-28T16:05:23.371Z,23.30
2018-04-28T16:08:02.372Z,23.50
2018-04-28T16:10:30.565Z,24.00
2018-04-28T16:12:58.750Z,24.20
2018-04-28T16:15:27.743Z,24.00
2018-04-28T16:17:55.918Z,23.90
2018-04-28T16:20:24.177Z,24.70
2018-04-28T16:22:52.375Z,24.50
2018-04-28T16:25:21.419Z,22.80
2018-04-28T16:27:49.633Z,22.70
2018-04-28T16:30:17.868Z,22.80
2018-04-28T16:32:46.066Z,22.40
2018-04-28T16:35:14.274Z,22.50
2018-04-28T16:37:45.227Z,22.80
2018-04-28T16:40:13.442Z,22.80
2018-04-28T16:42:41.634Z,22.10
2018-04-28T16:45:09.886Z,21.50
2018-04-28T16:47:40.518Z,21.70
2018-04-28T16:50:08.754Z,21.80
2018-04-28T16:52:37.013Z,21.60
2018-04-28T16:55:06.017Z,21.30
2018-04-28T16:57:35.993Z,20.90
2018-04-28T17:00:04.201Z,20.90
2018-04-28T17:02:33.164Z,20.60
2018-04-28T17:05:01.441Z,20.60
2018-04-28T17:07:31.601Z,20.50
2018-04-28T17:09:59.860Z,20.30
2018-04-28T17:12:28.093Z,20.10
2018-04-28T17:14:56.283Z,20.00
2018-04-28T17:17:54.990Z,19.80
2018-04-28T17:20:24.034Z,19.50
2018-04-28T17:22:52.265Z,19.50
2018-04-28T17:25:21.233Z,19.20
2018-04-28T17:27:54.011Z,19.10
2018-04-28T17:30:22.280Z,19.00
2018-04-28T17:32:50.504Z,18.90
2018-04-28T17:35:19.435Z,18.30
2018-04-28T17:37:52.777Z,18.30
2018-04-28T17:40:21.743Z,18.10
2018-04-28T17:42:50.046Z,18.00
2018-04-28T17:45:18.229Z,18.10
2018-04-28T17:47:59.790Z,17.80
2018-04-28T17:50:28.006Z,17.80
2018-04-28T17:52:56.226Z,17.60
2018-04-28T17:55:24.438Z,17.20
2018-04-28T17:58:02.797Z,17.30
2018-04-28T18:00:31.055Z,17.30
2018-04-28T18:02:59.319Z,17.10
2018-04-28T18:05:27.501Z,17.00
2018-04-28T18:08:03.227Z,16.80
2018-04-28T18:10:32.204Z,16.00
2018-04-28T18:13:00.425Z,16.00
2018-04-28T18:15:28.626Z,16.00
2018-04-28T18:18:00.718Z,16.10
2018-04-28T18:20:28.909Z,16.00
2018-04-28T18:22:57.946Z,15.70
2018-04-28T18:25:26.160Z,15.70
2018-04-28T18:27:56.321Z,15.60
2018-04-28T18:30:24.513Z,15.60
2018-04-28T18:32:52.737Z,15.50
2018-04-28T18:35:20.982Z,15.50
2018-04-28T18:37:53.874Z,15.40
2018-04-28T18:40:22.129Z,15.30
2018-04-28T18:42:50.387Z,15.20
2018-04-28T18:45:19.391Z,15.00
2018-04-28T18:47:48.575Z,14.90
2018-04-28T18:50:16.790Z,15.10
2018-04-28T18:52:45.005Z,15.10
2018-04-28T18:55:13.198Z,15.10
2018-04-28T18:57:43.433Z,15.00
2018-04-28T19:00:11.716Z,15.00
2018-04-28T19:02:39.893Z,14.90
2018-04-28T19:05:08.181Z,14.70
2018-04-28T19:07:36.370Z,14.60
2018-04-28T19:10:04.625Z,14.60
2018-04-28T19:12:32.886Z,14.60
2018-04-28T19:15:01.101Z,14.50
2018-04-28T19:17:30.103Z,14.30
2018-04-28T19:19:59.108Z,14.30
2018-04-28T19:22:27.341Z,14.30
2018-04-28T19:24:55.608Z,14.30
2018-04-28T19:27:24.797Z,14.30
2018-04-28T19:29:53.083Z,14.30
2018-04-28T19:32:21.364Z,14.30
2018-04-28T19:34:49.577Z,14.20
2018-04-28T19:37:18.647Z,14.00
2018-04-28T19:39:46.862Z,14.00
2018-04-28T19:42:15.141Z,14.10
2018-04-28T19:44:43.368Z,13.80
2018-04-28T19:47:11.589Z,13.60
2018-04-28T19:49:39.756Z,13.60
2018-04-28T19:52:07.934Z,13.60
2018-04-28T19:54:36.152Z,13.70
2018-04-28T19:57:09.930Z,13.50
2018-04-28T19:59:38.806Z,13.50
2018-04-28T20:02:07.066Z,13.40
2018-04-28T20:04:35.281Z,13.40
2018-04-28T20:07:08.564Z,13.40
2018-04-28T20:09:36.758Z,13.40
2018-04-28T20:12:04.994Z,13.20
2018-04-28T20:14:33.173Z,13.00
2018-04-28T20:17:01.413Z,12.90
2018-04-28T20:19:30.398Z,12.80
2018-04-28T20:22:16.522Z,12.80
2018-04-28T20:25:02.389Z,12.60
2018-04-28T20:27:32.360Z,12.70
2018-04-28T20:30:00.553Z,12.60
2018-04-28T20:32:28.725Z,12.60
2018-04-28T20:34:56.933Z,12.60
2018-04-28T20:37:26.867Z,12.60
2018-04-28T20:39:55.125Z,12.50
2018-04-28T20:42:24.157Z,12.50
2018-04-28T20:44:52.356Z,12.50
2018-04-28T20:47:20.638Z,12.30
2018-04-28T20:49:48.891Z,12.30
2018-04-28T20:52:17.119Z,12.30
2018-04-28T20:54:46.119Z,12.00
2018-04-28T20:57:14.332Z,11.90
2018-04-28T20:59:42.627Z,11.70
2018-04-28T21:02:11.682Z,11.70
2018-04-28T21:04:39.914Z,11.60
2018-04-28T21:07:10.094Z,11.50
2018-04-28T21:09:38.334Z,11.40
2018-04-28T21:12:07.359Z,11.50
2018-04-28T21:14:35.595Z,11.50
2018-04-28T21:17:28.106Z,11.80
2018-04-28T21:19:56.349Z,11.80
2018-04-28T21:22:24.566Z,11.90
2018-04-28T21:24:52.851Z,11.80
2018-04-28T21:27:21.107Z,11.60
2018-04-28T21:29:49.370Z,11.50
2018-04-28T21:32:17.590Z,11.40
2018-04-28T21:34:46.599Z,11.40
2018-04-28T21:37:25.429Z,11.40
2018-04-28T21:39:53.664Z,11.30
2018-04-28T21:42:21.903Z,11.40
2018-04-28T21:44:50.115Z,11.40
2018-04-28T21:47:18.349Z,11.40
2018-04-28T21:49:46.565Z,11.30
2018-04-28T21:52:15.944Z,11.20
2018-04-28T21:54:44.179Z,11.30
2018-04-28T21:57:19.837Z,11.30
2018-04-28T21:59:48.116Z,11.30
2018-04-28T22:02:16.291Z,11.30
2018-04-28T22:04:44.569Z,11.20
2018-04-28T22:07:25.679Z,11.30
2018-04-28T22:09:53.925Z,11.20
2018-04-28T22:12:22.959Z,11.20
2018-04-28T22:14:51.166Z,11.10
2018-04-28T22:17:30.854Z,11.20
2018-04-28T22:19:59.076Z,11.20
2018-04-28T22:22:27.259Z,11.00
2018-04-28T22:24:55.468Z,11.10
2018-04-28T22:27:25.655Z,11.20
2018-04-28T22:29:53.902Z,11.10
2018-04-28T22:32:22.101Z,11.10
2018-04-28T22:34:50.361Z,10.90
2018-04-28T22:37:20.257Z,10.80
2018-04-28T22:39:48.465Z,10.80
2018-04-28T22:42:16.689Z,10.80
2018-04-28T22:44:44.889Z,10.60
2018-04-28T22:47:13.123Z,10.70
2018-04-28T22:49:41.314Z,10.70
2018-04-28T22:52:09.589Z,10.60
2018-04-28T22:54:37.801Z,10.60
2018-04-28T22:57:10.547Z,10.60
2018-04-28T22:59:38.798Z,10.60
2018-04-28T23:02:07.081Z,10.60
2018-04-28T23:04:35.289Z,10.70
2018-04-28T23:07:07.498Z,10.70
2018-04-28T23:09:35.698Z,10.80
2018-04-28T23:12:03.988Z,10.70
2018-04-28T23:14:32.183Z,10.60
2018-04-28T23:17:23.609Z,10.50
2018-04-28T23:19:52.603Z,10.40
2018-04-28T23:22:21.649Z,10.20
2018-04-28T23:24:49.893Z,10.20
2018-04-28T23:27:18.132Z,10.30
2018-04-28T23:29:46.411Z,10.40
2018-04-28T23:32:15.438Z,10.60
2018-04-28T23:34:43.644Z,10.50
2018-04-28T23:37:15.930Z,10.60
2018-04-28T23:39:44.135Z,10.80
2018-04-28T23:42:13.138Z,10.90
2018-04-28T23:44:42.099Z,11.00
2018-04-28T23:47:10.369Z,11.00
2018-04-28T23:49:38.669Z,11.00
2018-04-28T23:52:07.711Z,10.90
2018-04-28T23:54:35.906Z,10.90
2018-04-28T23:57:21.071Z,10.90
2018-04-28T23:59:49.274Z,10.90
